You are on page 1of 4

EkRL; fdlku izf'k{k.k dsUnz] jk¡ph ftyk % yksgjnxk ftykokj izf'k{kk.

kkfFkZ;ksa dh lwph 2011&12


izf'k{k.k dk uke %& 3 fnolh; cht mRiknu
Øzela izf'k{k.kkFkhZ firk dk uke xzke@lfefr iksLV iz[kaM M/ F iz0 vof/k fucU/k l0 Qksu u0 rkykc
0 dksfV dk
jdok
1 jkefd'kksj egrks Lo0 cydq egrks cx: cx: fdLdks M OBC 4/14/2011 -16/04/2011 LO / 2011-2012 / 1 7677577328 0.22
2 jkethr mjk¡o frokjh mjk¡o nqjgqy ljuukjh&uokMhgfdLdkM ST 14/04/2011 -16/04/2011 LO / 2011-2012 / 2 7677577328 0.22
3 jkfou frXxk Lo0 vkyksM frXxknqjgqy ljuukjh&uokMhgfdLdkM ST 14/04/2011 -16/04/2011 LO / 2011-2012 / 3 7677577328 0.22
4 mes'k mjk¡o Lo0 pjuk mjk¡o ukjh ukjh&uokMhgfdLdkM ST 14/04/2011 -16/04/2011 LO / 2011-2012 / 4 0
5 bZekuq,y dqtwj bZ'oj lgk; dwtwj nqjhy ukjh&uokMhgfdLdkM ST 14/04/2011 -16/04/2011 LO / 2011-2012 / 5 0.22
6 lehj dqtwj efrekl dqtwj nqjhy ukjh&uokMhgfdLdkM ST 14/04/2011 -16/04/2011 LO / 2011-2012 / 6 1
7 izosl lkg vftt lkg dsk;k fdLdks fdLdks M OBC 14/04/2011 -16/04/2011 LO / 2011-2012 / 7 9835445714 0.3
8 fcgkjh lkgw Lo0 Qkxw lkgw HkhBk HkhBk Hk.Mjk M OBC 14/04/2011 -16/04/2011 LO / 2011-2012 / 8 1
9 nqxkZ lkgw /kus'oj lkgw HkhBk HkhBk Hk.Mjk M OBC 14/04/2011 -16/04/2011 LO / 2011-2012 / 9 9693677897 0.6
10 fnus'k Bkdqj foty Bkdqj HkhBk HkhBk Hk.Mjk M OBC 14/04/2011 -16/04/2011 LO / 2011-2012 / 10 8969611642 0.22
11 equdw lkgw txs'oj lkgw HkhBk HkhBk Hk.Mjk M OBC 14/04/2011 -16/04/2011 LO / 2011-2012 / 11 8757517730 0.22
12 fxjs'k egrks egknso egrks HkhBk HkhBk Hk.Mjk M OBC 14/04/2011 -16/04/2011 LO / 2011-2012 / 12 1
13 eks0 eqLrQk Lo0 dkyw fe;ka i.Mk i.Mk dqMw M OBC 14/04/2011 -16/04/2011 LO / 2011-2012 / 13 8873188727 1
14 ulhe iofj;k yrhQ iofj;k i.Mk i.Mk dqMw M OBC 14/04/2011 -16/04/2011 LO / 2011-2012 / 14 7739615641 0.22
15 :is'k lkgw Lo0 Hknj lkgw eklekuks eklekuks Hk.Mjk M OBC 14/04/2011 -16/04/2011 LO / 2011-2012 / 15 8002832010 2
16 fcgkjh Hkxr Lo0 foxuk Hkxr pkijksx eqxksa lsUgk M ST 15/04/2011 -17/04/2011 LO / 2011-2012 / 16 1.6
17 jQhd vUlkjh lyker vUlkjh dqjls dqjls yksgjnxkM OBC 15/04/2011 -17/04/2011 LO / 2011-2012 / 17 9838314759 0.22
18 c'khj vUlkjh lyker vUlkjh dqjls dqjls yksgjnxkM OBC 15/04/2011 -17/04/2011 LO / 2011-2012 / 18 9801653643 0.22
19 olhe valkjh jslktr valkjh dqjls dqjls yksgjnxkM OBC 15/04/2011 -17/04/2011 LO / 2011-2012 / 19 9939314050 0.22
20 dqcZu valkjh vdcj valkjh dqjls dqjls yksgjnxkM OBC 15/04/2011 -17/04/2011 LO / 2011-2012 / 20 7677847394 0.11
21 bErs;kt valkjh vteqn~nhu valkj dqjls dqjls yksgjnxkM OBC 15/04/2011 -17/04/2011 LO / 2011-2012 / 21 9801654115 0.11
22 teky valkjh bekeu fe;k¡ dqjls dqjls yksgjnxkM OBC 15/04/2011 -17/04/2011 LO / 2011-2012 / 22 0.11
23 bLrsekd valkjh eqLyhe valkjh dqjls dqjls yksgjnxkM OBC 15/04/2011 -17/04/2011 LO / 2011-2012 / 23 9608711510 0.15
24 [kq'khZn vkye ts;kjr gqlSu dqjls dqjls yksgjnxkM OBC 15/04/2011 -17/04/2011 LO / 2011-2012 / 24 9006814471 0.11
25 tkfdj gqlSu us;ker gqlSu dqjls dqjls yksgjnxkM OBC 15/04/2011 -17/04/2011 LO / 2011-2012 / 25 9905746960 0.15
26 eqlhZn valkjh js;ktwy valkjh dqjls dqjls yksgjnxkM OBC 15/04/2011 -17/04/2011 LO / 2011-2012 / 26 9798379687 0.22
27 eqLrkd valkjh lxhj valkjh dqjls dqjls yksgjnxkM OBC 15/04/2011 -17/04/2011 LO / 2011-2012 / 27 9835748161 0.15
28 eqLrkd valkjh eqLyhe valkjh dqjls dqjls yksgjnxkM OBC 15/04/2011 -17/04/2011 LO / 2011-2012 / 28 8102502321 0.2
29 rlyhe valkjh us;ker valkjh dqjls dqjls yksgjnxkM OBC 15/04/2011 -17/04/2011 LO / 2011-2012 / 29 9905630333 0.15
30 ljrkt valkjh vtheqnhu valkjh dqjls dqjls yksgjnxkM OBC 15/04/2011 -17/04/2011 LO / 2011-2012 / 30 9308174196 0.2
31 gchcwy valkjh dyeqyk valkjh dqjls dqjls yksgjnxkM OBC 15/04/2011 -17/04/2011 LO / 2011-2012 / 31 0.6
32 dkfle valkjh egheqn~nhu valkdqjls dqjls yksgjnxkM OBC 15/04/2011 -17/04/2011 LO / 2011-2012 / 32 0.22
33 vkfle valkjh egheqn~nhu valkdqjls dqjls yksgjnxkM OBC 15/04/2011 -17/04/2011 LO / 2011-2012 / 33 9905051939 0.22
34 claUr mjk¡o Lo0 ftrokgu mjk¡odqjls dqjls yksgjnxkM OBC 15/04/2011 -17/04/2011 LO / 2011-2012 / 34 9431766683 1
35 mTtoy ydM+k Lo0 eulkhg ydM+Mqejh fltsa dqMw M ST 15/04/2011 -17/04/2011 LO / 2011-2012 / 35 0.22
36 rwfj;k Hkxr Lo0 fHkjok Hkxr tehjk cqVh lsUgk M ST 02/05/2011 -04/05/2011 LO / 2011-2012 / 36 9334184506 0
37 /kuat; frokjh Mkseu ukFk frokjf>dkspgh f>dkspghHk.Mjk M GEN 12/05/2011 -14/05/2011 LO / 2011-2012 / 37 8873267112 2
38 izdk'k mjkao cq/keku mjkao NqVkiukFkifrfl;k fdLdks M ST 12/05/2011 -14/05/2011 LO / 2011-2012 / 38 9430703073 0.6
39 lk/kw yksgjk Lo0 djek yksgjk dpeph fHkBk HkUMjk M ST 12/05/2011 -14/05/2011 LO / 2011-2012 / 39 9661937183 1
40 f'ko 'kadj egyh sf'ko ukjk;.k egyhdpeph fHkBk HkUMjk M ST 12/05/2011 -14/05/2011 LO / 2011-2012 / 40 9771570719 0.3
41 cq)w mjk¡o Lo0 lksgjkbZ mjkdpeph fHkBk HkUMjk M ST 12/05/2011 -14/05/2011 LO / 2011-2012 / 41 0.32
42 lq[knso mjk¡o fcjlk mjk¡o dpeph fHkBk HkUMjk M OBC 12/05/2011 -14/05/2011 LO / 2011-2012 / 42 7677737603 0.2
43 ccyw mjk¡o txUukFk mjk¡o dpeph fHkBk HkUMjk M OBC 12/05/2011 -14/05/2011 LO / 2011-2012 / 43 9798694984 0.22
44 ckyxksfcUn yksglk/qk yksgjk dpeph fHkBk HkUMjk M ST 12/05/2011 -14/05/2011 LO / 2011-2012 / 44 9661937182 0.2
45 Qkrs mjkao eaxuk mjk¡o dpeph fHkBk HkUMjk M ST 12/05/2011 -14/05/2011 LO / 2011-2012 / 45 8521428265 0.3
46 eqVw mjk¡o eaxuk mjk¡o dpeph fHkBk HkUMjk M ST 12/05/2011 -14/05/2011 LO / 2011-2012 / 46 0.3
47 lat; mjk¡o laMk mjk¡o dpeph fHkBk HkUMjk M ST 12/05/2011 -14/05/2011 LO / 2011-2012 / 47 7250746661 0.2
48 lhrkjke egyh Lo0 Hkwiky egyhdpeph fHkBk HkUMjk M OBC 12/05/2011 -14/05/2011 LO / 2011-2012 / 48 8757733705 0.2
49 dey mjk¡o lqdjk mjk¡o dpeph fHkBk HkUMjk M 12/05/2011 -14/05/2011 LO / 2011-2012 / 49 9199528479 0.75
50 eks0 'kQhd Lo0 vtheqn~nhu edkUnq ftaxh dqMw M OBC 12/05/2011 -14/05/2011 LO / 2011-2012 / 50 8651446540 7.5
51 eks0 izost vkye lqyrku vgen valkjtkstjks ftaxh dqMw M ST 12/05/2011 -14/05/2011 LO / 2011-2012 / 51 993496669 3.5
52 egknso Hkxr Lo0 xUnqj Hkxr Vhdks dqMw dqMw M ST 12/05/2011 -14/05/2011 LO / 2011-2012 / 52 7870596858 3
53 tehy valjQ valkjgkth dqnjr valkjhtkstjks ftxh dqMw M OBC 12/05/2011 -14/05/2011 LO / 2011-2012 / 53 9939394830 1.5
54 bLekbZy valkjh Lo0 lkfdj valkjh tkstjks ftxh dqMw M OBC 12/05/2011 -14/05/2011 LO / 2011-2012 / 54 9973778292 1.2
55 vcqy valkjh tchj valkjh tkstjks ftxh dqMw M OBC 12/05/2011 -14/05/2011 LO / 2011-2012 / 55 7250895890 0.3
56 jathr ydM+k tdfj;l ydM+k VksMk+x gugV dqMw M ST 12/05/2011 -14/05/2011 LO / 2011-2012 / 56 9798347437 2.5
57 cStw yksgjk Lo0 djek yksgjk dpeph ykyfHkV~VHk.Mjk M SC 12/05/2011 -14/05/2011 LO / 2011-2012 / 57 0.9
58 jktsUnz jke gfjukFk jke dpeph ykyfHkV~VHk.Mjk M SC 12/05/2011 -14/05/2011 LO / 2011-2012 / 58 8051161782 0.7
59 ckys'oj jke Lo0 fxj/kkjh jke pUnykyks gsatyk dqMw M SC 12/05/2011 -14/05/2011 LO / 2011-2012 / 59 0.75
60 jke ujs'k jke gfj jke pUnykyks gsatyk dqMw M SC 12/05/2011 -14/05/2011 LO / 2011-2012 / 60 0.75
61 iIiq dq0 jke nqykj panjke pUnykyks gsatyk dqMw M SC 12/05/2011 -14/05/2011 LO / 2011-2012 / 61 0.3
62 yydq jke gfjukFk jke pUnykyks gsatyk dqMw M SC 12/05/2011 -14/05/2011 LO / 2011-2012 / 62 0.3
63 xaxk jke vehu jke pUnykyks gsatyk dqMw M SC 12/05/2011 -14/05/2011 LO / 2011-2012 / 63 0.6
64 tqxy mjk¡o Lo0 <sacw mjk¡ ykoxkbZ gslkfi< fdLdks M ST 12/05/2011 -14/05/2011 LO / 2011-2012 / 64 0.3
65 tdq mjk¡o lqjtk mjk¡o slkfi<+h gslkfi< fdLdks M ST 12/05/2011 -14/05/2011 LO / 2011-2012 / 65 0.3
66 f'ko dqekj frokjhmes'oj ukFk frokjf>dks fpëh f>dks f Hk.Mjk M GEN 19/05/2011 -21/05/2011 LO / 2011-2012 / 66 9430144336 5.8
67 txriky dkanw Lo0 caxyw dkanwftfj;ks pk¡ih tfj;ksdqMw M OBC 19/05/2011 -21/05/2011 LO / 2011-2012 / 67 9631671365 0.4
68 vkuUn fogkjh d Lo0 cxyw dkUnw gksVokj pk¡ih dqMw M OBC 19/05/2011 -21/05/2011 LO / 2011-2012 / 68 9798396285 0.92
69 eksckjd valkjh Lo0 jgeqÌhu valkjtfj;ks pk¡ih tfj;ks dqMw M OBC 19/05/2011 -21/05/2011 LO / 2011-2012 / 69 0.9
70 cq/keu mjk¡o Lo0 ca/kuk mjk¡o[k[lh pk¡ih tfj;ks dqMw M OBC 19/05/2011 -21/05/2011 LO / 2011-2012 / 70 0.3
71 lq[kjke mjk¡o Lo0 lfu mjk¡o irjkVksyh pk¡ih tfj;dqMw M ST 19/05/2011 -21/05/2011 LO / 2011-2012 / 71 0.3
72 ftokgu mjk¡o Lo0 Hkksyk mjk¡oiadjVksyh pk¡ih tfj dqMw M ST 19/05/2011 -21/05/2011 LO / 2011-2012 / 72 0.9
73 foQbZ mjk¡o Lo0 euh mjk¡o gksVokj pk¡ih tfj; dqMw M ST 19/05/2011 -21/05/2011 LO / 2011-2012 / 73 0.75
74 cUns mjk¡o Lo0 x.ks'k mjk¡o pqUn ikdj Vksyhpk¡ihdqMw M ST 19/05/2011 -21/05/2011 LO / 2011-2012 / 74 0.9
75 etcqy valkjh Lo0 NksVu valkjhtfj;ks pk¡ih tfj;ks dqMw M OBC 19/05/2011 -21/05/2011 LO / 2011-2012 / 75 9693726530 0.9
76 jfr;k mjk¡o tksxh mjk¡o irjkVksyh pk¡ih tfj;dqMw M ST 19/05/2011 -21/05/2011 LO / 2011-2012 / 76 0.9
77 vfuy mjk¡o Lo0 cq/kjke mjk¡ogksVokj pk¡ih tfj; dqMw M ST 19/05/2011 -21/05/2011 LO / 2011-2012 / 77 8102223018 1
78 fnyhi dqekj cSB jkepUnz cSBk dqUnks fiijk Vksydh dqMw M SC 02/06/2011 -04/06/2011 LO / 2011-2012 / 78 7631021875 1.7
79 larks"k dqekj jkeizrki lkgq dqMw dqMw dqMw M OBC 02/06/2011 -04/06/2011 LO / 2011-2012 / 79 9835561567 2
80 jk;flag jkuk HkxrLo0 pjdw jkuk Hkdksyflejh ykokxkbZdqMw M ST 02/06/2011 -04/06/2011 LO / 2011-2012 / 80 8051101256 2
81 ,Suqy valkjh lqyrku vaaljh tkstajks ftxh dqMw M OBC 06/06/2011 -08/06/2011 LO / 2011-2012 / 81 9931559166 0.5
82 euhj valkjh [kyhy valkjh tkstajks ftxh dqMw M OBC 16/06/2011 -18/06/2011 LO / 2011-2012 / 82 0.6
83 vEcsy dsjdsêj eLdql dsjdsêj venjh lsejk Hk.Mjk M ST 16/06/2011 -18/06/2011 LO / 2011-2012 / 83 2
84 dq'ky ydM+k Lo0 Lusg elhn texkbZ texkbZ Hk.Mjk M ST 16/06/2011 -18/06/2011 LO / 2011-2012 / 84 1.8
85 /kesZUnz mjk¡oeax: mjk¡o lyS;k vEckVhfrfl;k fdLdks M ST 16/06/2011 -18/06/2011 LO / 2011-2012 / 85 0.3
86 jkefd'kksj Hkxr lqdjks Hkxr gsly cktks dqlsZ yksgjnXxM OBC 16/06/2011 -18/06/2011 LO / 2011-2012 / 86 0.3
87 ve`r nkl euq nkl ejksyh ejksyh yksgjnXxM ST 16/06/2011 -18/06/2011 LO / 2011-2012 / 87 0
88 vuh'k valkjh yfrQ valkjh ijgsikV fdLdks fdLdks M OBC 16/06/2011 -18/06/2011 LO / 2011-2012 / 88 11.5
89 lq[knso eq.Mk Lo0 vf/ke eq.Mk fr'kek fr'kek fdLdks M ST 16/06/2011 -18/06/2011 LO / 2011-2012 / 89 0
90 ,Suqy valkjh gfen valkjh >[kjk cqVh lsUgk M OBC 16/06/2011 -18/06/2011 LO / 2011-2012 / 90 6.3
91 ft;kmy valkjh vejh valkjh >[kjk cqVh lsUgk M OBC 06/06/2011 -08/06/2011 LO / 2011-2012 / 91 0.5
92 lgkchj mjk¡o Lo0 edq mjk¡o ,dkxqMh MkaMw lsUgk M ST 06/06/2011 -08/06/2011 LO / 2011-2012 / 92 1.3
93 vcqy valkjh lqyseku valkjh tkstjks ftxh dqMw M OBC 06/06/2011 -08/06/2011 LO / 2011-2012 / 93 1.2
94 ngh mjkao Lo0 cksYgk mjko lskjUnk cylksr e.Mjk M OBC 06/06/2011 -08/06/2011 LO / 2011-2012 / 94 0.3
95 eks0 eqerkt val eks0 bZlkx valkjhfrxjk vjdkslk yskgjnxkM OBC 06/06/2011 -08/06/2011 LO / 2011-2012 / 95 9825550579 4
96 vthr frdhZ ekjlsy frdhZ ftaxh ftaxh dqMw M ST 06/06/2011 -08/06/2011 LO / 2011-2012 / 96 9608391691 6
97 ijhck Hkxr Lo0 cuokjh Hkxr rkuk ftaxh dqMw M ST 06/06/2011 -08/06/2011 LO / 2011-2012 / 97 993956951 3
98 ,rok mjk¡o Lo0 efu;k mjk¡o lksjUnk cylksrk e.Mjk M OBC 16/06/2011 -18/06/2011 LO / 2011-2012 / 98 9955667413 1
99 u;dk mjk¡o yaxk mjk¡o lksjUnk cylksrk e.Mjk M ST 16/06/2011 -18/06/2011 LO / 2011-2012 / 99 9955667413 3
100 iape jke Lo0 HkkSjk jke uokMhg ukjh uok fdLdks M SC 16/06/2011 -18/06/2011 LO / 2011-2012 / 100 7677077022 2.5
101 cq/keku mjk¡o Lo0 tks[kuk mjk¡ NqVkiukFkifrfl;k fdLdks M OBC 16/06/2011 -18/06/2011 LO / 2011-2012 / 101 9430703073 3.5
102 f'kcw mjk¡o Lo0 cq+)q mjk¡o dksyflejh dksyflejh dqMw M ST 16/06/2011 -18/06/2011 LO / 2011-2012 / 102 9771802455 2.7
103 eksgu VksIiks Lo0 cks/kk VksIiklksjn.nk cylksVks e.Mjk M ST 16/06/2011 -18/06/2011 LO / 2011-2012 / 103 9798716628 14
104 jkelqjr jke Lo0 cus'oj jke dksyflejh;k dksyflejh;dqMw M SC 16/06/2011 -18/06/2011 LO / 2011-2012 / 104 896988233 0.82
105 ,rok Hkxr Lo0 pejk Hkxr ,dk xqMh Mk¡Mw lsUgk M ST 16/06/2011 -18/06/2011 LO / 2011-2012 / 105 8969536221 0.4
106 iqubZ mjk¡o foQbZ mjko frfl;k MwejVksyfhrfl;fdLdks M ST 16/06/2011 -18/06/2011 LO / 2011-2012 / 106 8083132576 0.3
107 cynso mjk¡o Lo0 cgqjk mjk¡o frfl;k MwejVksyfhrfl;fdLdks M ST 16/06/2011 -18/06/2011 LO / 2011-2012 / 107 0
108 fouksn mjk¡o Qkxq mjk¡o dqUns>hdkspêh Hk.Mjk M ST 16/06/2011 -18/06/2011 LO / 2011-2012 / 108 8298159295 4
109 fnyhi mjk¡o Lo0 pqUnk mjk¡odqUns>hdkspêh Hk.Mjk M OBC 16/06/2011 -18/06/2011 LO / 2011-2012 / 109 9939150706 4.3
110 ctkgr valkjh bdcky valkjh frxjk Hkjdkslk yksgjnxkM OBC 16/06/2011 -18/06/2011 LO / 2011-2012 / 110 5
111 'kgknr valkjh uquok valkjh frxjk Hkjdkslk yksgjnxkM OBC 16/06/2011 -18/06/2011 LO / 2011-2012 / 111 1
110 ctkgr valkjh bdcky valkjh frxjk Hkjdkslk yksgjnxkM OBC 16/06/2011 -18/06/2011 LO / 2011-2012 / 110 5

111 'kgknr valkjh uquok valkjh frxjk Hkjdkslk yksgjnxkM OBC 16/06/2011 -18/06/2011 LO / 2011-2012 / 111 1
112 lq/khj /khoj Lo0 cyjke /khoj jkeiqj jkeiqj yksgjnxkM OBC 16/06/2011 -18/06/2011 LO / 2011-2012 / 112 0
113 iape yksgjk Lo0 f'koukFk yksgcnkyk fdLdks fdLdks M ST 16/06/2011 -18/06/2011 LO / 2011-2012 / 113 0
114 pejk mjkWo Lo0 xksfe;k mjkWf'koukjkeiqj yksgjnxkM ST 16/06/2011 -18/06/2011 LO / 2011-2012 / 114 0
115 fcjtq mjkWo Lo0 yk[kks mjkWf'koukHkjdkslk yksgjnxkM ST 16/06/2011 -18/06/2011 LO / 2011-2012 / 115 0
116 lk: mjkWo Mgjh mjWo f'koukHkjdkslk yksgjnxkM ST 16/06/2011 -18/06/2011 LO / 2011-2012 / 116 0
117 lanhi mjkWo lksgjkbZ mjkWo xqM+xiksMsikV fdLdks M ST 16/06/2011 -18/06/2011 LO / 2011-2012 / 117 0
118 [kqnjk mjkWo xsxk mjkWo xqM+xiksMsikV fdLdks M ST 16/06/2011 -18/06/2011 LO / 2011-2012 / 118 0